createdAt,value
2023-04-11T00:00:06.420Z,23.75
2023-04-11T00:01:06.420Z,23.75
2023-04-11T00:02:06.582Z,23.76
2023-04-11T00:03:06.549Z,23.76
2023-04-11T00:04:06.598Z,23.76
2023-04-11T00:05:06.536Z,23.75
2023-04-11T00:06:06.511Z,23.74
2023-04-11T00:07:06.592Z,23.79
2023-04-11T00:08:06.606Z,23.76
2023-04-11T00:09:06.680Z,23.78
2023-04-11T00:10:06.751Z,23.79
2023-04-11T00:11:06.867Z,23.80
2023-04-11T00:12:06.829Z,23.82
2023-04-11T00:13:06.875Z,23.81
2023-04-11T00:14:06.929Z,23.84
2023-04-11T00:15:06.938Z,23.84
2023-04-11T00:16:07.040Z,23.81
2023-04-11T00:17:07.002Z,23.81
2023-04-11T00:18:07.110Z,23.82
2023-04-11T00:19:07.044Z,23.85
2023-04-11T00:20:07.092Z,23.85
2023-04-11T00:21:07.082Z,23.85
2023-04-11T00:22:07.105Z,23.88
2023-04-11T00:23:07.180Z,23.84
2023-04-11T00:24:07.154Z,23.82
2023-04-11T00:25:07.152Z,23.84
2023-04-11T00:26:07.151Z,23.84
2023-04-11T00:27:07.172Z,23.84
2023-04-11T00:28:07.157Z,23.83
2023-04-11T00:29:07.158Z,23.82
2023-04-11T00:30:07.156Z,23.85
2023-04-11T00:31:07.140Z,23.83
2023-04-11T00:32:07.278Z,23.82
2023-04-11T00:33:07.176Z,23.84
2023-04-11T00:34:07.115Z,23.84
2023-04-11T00:35:07.192Z,23.85
2023-04-11T00:36:07.151Z,23.87
2023-04-11T00:37:07.155Z,23.85
2023-04-11T00:38:07.085Z,23.85
2023-04-11T00:39:07.070Z,23.83
2023-04-11T00:40:07.084Z,23.87
2023-04-11T00:41:07.047Z,23.83
2023-04-11T00:42:07.024Z,23.85
2023-04-11T00:43:07.009Z,23.85
2023-04-11T00:44:07.003Z,23.83
2023-04-11T00:45:06.976Z,23.85
2023-04-11T00:46:07.024Z,23.84
2023-04-11T00:47:06.971Z,23.86
2023-04-11T00:48:06.957Z,23.86
2023-04-11T00:49:06.910Z,23.86
2023-04-11T00:50:06.901Z,23.84
2023-04-11T00:51:06.875Z,23.85
2023-04-11T00:52:06.870Z,23.88
2023-04-11T00:53:06.850Z,23.86
2023-04-11T00:54:06.841Z,23.87
2023-04-11T00:55:06.818Z,23.89
2023-04-11T00:56:06.834Z,23.87
2023-04-11T00:57:06.828Z,23.87
2023-04-11T00:58:06.801Z,23.85
2023-04-11T00:59:06.798Z,23.87
2023-04-11T01:00:06.776Z,23.88
2023-04-11T01:01:06.817Z,23.89
2023-04-11T01:02:06.826Z,23.89
2023-04-11T01:03:06.946Z,23.89
2023-04-11T01:04:06.845Z,23.91
2023-04-11T01:05:06.738Z,23.91
2023-04-11T01:06:06.733Z,23.92
2023-04-11T01:07:06.711Z,23.92
2023-04-11T01:08:06.694Z,23.92
2023-04-11T01:09:06.684Z,23.92
2023-04-11T01:10:06.685Z,23.93
2023-04-11T01:11:06.662Z,23.95
2023-04-11T01:12:06.661Z,23.94
2023-04-11T01:13:06.640Z,23.94
2023-04-11T01:14:06.630Z,23.96
2023-04-11T01:15:06.617Z,23.94
2023-04-11T01:16:06.624Z,23.94
2023-04-11T01:17:06.633Z,23.93
2023-04-11T01:18:06.637Z,23.96
2023-04-11T01:19:06.592Z,23.97
2023-04-11T01:20:06.575Z,23.95
2023-04-11T01:21:06.571Z,23.96
2023-04-11T01:22:06.571Z,23.96
2023-04-11T01:23:06.545Z,23.97
2023-04-11T01:24:06.546Z,23.97
2023-04-11T01:25:06.531Z,23.98
2023-04-11T01:26:06.529Z,23.98
2023-04-11T01:27:06.514Z,23.98
2023-04-11T01:28:06.503Z,23.98
2023-04-11T01:29:06.486Z,23.97
2023-04-11T01:30:06.503Z,23.99
2023-04-11T01:31:06.524Z,23.99
2023-04-11T01:32:06.465Z,24.00
2023-04-11T01:33:06.476Z,23.99
2023-04-11T01:34:06.426Z,23.97
2023-04-11T01:35:06.444Z,23.98
2023-04-11T01:36:06.413Z,23.96
2023-04-11T01:37:06.393Z,23.97
2023-04-11T01:38:06.383Z,23.99
2023-04-11T01:39:06.364Z,24.00
2023-04-11T01:40:06.343Z,23.99
2023-04-11T01:41:06.325Z,23.99
2023-04-11T01:42:06.323Z,23.98
2023-04-11T01:43:06.301Z,23.98
2023-04-11T01:44:06.290Z,23.97
2023-04-11T01:45:06.269Z,23.99
2023-04-11T01:46:06.265Z,23.99
2023-04-11T01:47:06.292Z,23.99
2023-04-11T01:48:06.289Z,23.99
2023-04-11T01:49:06.237Z,23.99
2023-04-11T01:50:06.195Z,23.98
2023-04-11T01:51:06.179Z,23.97
2023-04-11T01:52:06.171Z,23.97
2023-04-11T01:53:06.157Z,23.99
2023-04-11T01:54:06.136Z,23.98
2023-04-11T01:55:06.123Z,24.00
2023-04-11T01:56:06.125Z,23.98
2023-04-11T01:57:06.112Z,23.97
2023-04-11T01:58:06.110Z,23.98
2023-04-11T01:59:06.077Z,23.97
2023-04-11T02:00:06.063Z,23.98
2023-04-11T02:01:06.064Z,24.00
2023-04-11T02:02:06.126Z,23.98
2023-04-11T02:03:06.145Z,23.99
2023-04-11T02:04:06.166Z,23.98
2023-04-11T02:05:06.001Z,24.00
2023-04-11T02:06:06.002Z,23.99
2023-04-11T02:07:05.986Z,23.98
2023-04-11T02:08:05.970Z,23.99
2023-04-11T02:09:05.955Z,23.99
2023-04-11T02:10:05.953Z,24.01
2023-04-11T02:11:05.923Z,24.00
2023-04-11T02:12:05.914Z,24.02
2023-04-11T02:13:05.922Z,24.00
2023-04-11T02:14:05.885Z,23.99
2023-04-11T02:15:05.872Z,23.98
2023-04-11T02:16:05.901Z,24.01
2023-04-11T02:17:05.862Z,24.00
2023-04-11T02:18:05.898Z,23.99
2023-04-11T02:19:05.843Z,23.99
2023-04-11T02:20:05.843Z,24.01
2023-04-11T02:21:05.885Z,24.01
2023-04-11T02:22:05.833Z,24.00
2023-04-11T02:23:05.834Z,24.00
2023-04-11T02:24:05.815Z,24.00
2023-04-11T02:25:05.802Z,24.01
2023-04-11T02:26:05.805Z,24.01
2023-04-11T02:27:05.778Z,24.00
2023-04-11T02:28:08.090Z,24.03
2023-04-11T02:29:05.893Z,23.99
2023-04-11T02:30:05.925Z,24.02
2023-04-11T02:31:06.014Z,24.00
2023-04-11T02:32:05.990Z,24.00
2023-04-11T02:33:06.031Z,24.01
2023-04-11T02:34:05.903Z,24.01
2023-04-11T02:35:05.909Z,24.02
2023-04-11T02:36:05.967Z,24.02
2023-04-11T02:37:05.922Z,24.02
2023-04-11T02:38:05.922Z,24.01
2023-04-11T02:39:05.914Z,24.01
2023-04-11T02:40:05.916Z,24.01
2023-04-11T02:41:05.934Z,24.02
2023-04-11T02:42:05.921Z,24.00
2023-04-11T02:43:05.931Z,23.99
2023-04-11T02:44:05.939Z,24.02
2023-04-11T02:45:05.919Z,24.02
2023-04-11T02:46:12.542Z,24.00
2023-04-11T02:47:06.916Z,24.00
2023-04-11T02:48:05.913Z,24.02
2023-04-11T02:49:05.863Z,24.01
2023-04-11T02:50:05.854Z,24.02
2023-04-11T02:51:05.825Z,24.01
2023-04-11T02:52:05.806Z,24.01
2023-04-11T02:53:05.828Z,24.03
2023-04-11T02:54:05.790Z,24.02
2023-04-11T02:55:05.778Z,24.03
2023-04-11T02:56:05.767Z,24.03
2023-04-11T02:57:05.761Z,24.02
2023-04-11T02:58:05.748Z,24.03
2023-04-11T02:59:05.729Z,24.02
2023-04-11T03:00:05.710Z,24.04
2023-04-11T03:01:05.698Z,24.04
2023-04-11T03:02:05.725Z,24.04
2023-04-11T03:03:05.791Z,24.02
2023-04-11T03:04:05.697Z,24.04
2023-04-11T03:05:05.643Z,24.02
2023-04-11T03:06:05.617Z,24.03
2023-04-11T03:07:05.595Z,24.04
2023-04-11T03:08:05.579Z,24.05
2023-04-11T03:09:05.574Z,24.03
2023-04-11T03:10:05.540Z,24.05
2023-04-11T03:11:05.552Z,24.04
2023-04-11T03:12:05.600Z,24.05
2023-04-11T03:13:05.521Z,24.03
2023-04-11T03:14:05.489Z,24.05
2023-04-11T03:15:05.485Z,24.05
2023-04-11T03:16:05.470Z,24.04
2023-04-11T03:17:05.447Z,24.02
2023-04-11T03:18:05.534Z,24.03
2023-04-11T03:19:05.460Z,24.03
2023-04-11T03:20:05.458Z,24.03
2023-04-11T03:21:05.461Z,24.03
2023-04-11T03:22:05.457Z,24.05
2023-04-11T03:23:05.475Z,24.04
2023-04-11T03:24:05.469Z,24.03
2023-04-11T03:25:05.475Z,24.04
2023-04-11T03:26:05.474Z,24.02
2023-04-11T03:27:05.464Z,24.04
2023-04-11T03:28:05.477Z,24.04
2023-04-11T03:29:05.479Z,24.03
2023-04-11T03:30:05.483Z,24.04
2023-04-11T03:31:05.531Z,24.02
2023-04-11T03:32:05.468Z,24.05
2023-04-11T03:33:05.490Z,24.04
2023-04-11T03:34:05.457Z,24.03
2023-04-11T03:35:05.463Z,24.03
2023-04-11T03:36:05.547Z,24.02
2023-04-11T03:37:05.470Z,24.02
2023-04-11T03:38:05.482Z,24.01
2023-04-11T03:39:05.472Z,24.01
2023-04-11T03:40:05.481Z,24.04
2023-04-11T03:41:05.481Z,24.04
2023-04-11T03:42:05.478Z,24.03
2023-04-11T03:43:05.517Z,24.04
2023-04-11T03:44:05.488Z,24.08
2023-04-11T03:45:05.496Z,24.05
2023-04-11T03:46:05.543Z,24.05
2023-04-11T03:47:05.651Z,24.05
2023-04-11T03:48:05.564Z,24.07
2023-04-11T03:49:05.534Z,24.04
2023-04-11T03:50:05.530Z,24.06
2023-04-11T03:51:05.576Z,24.05
2023-04-11T03:52:05.569Z,24.05
2023-04-11T03:53:05.577Z,24.09
2023-04-11T03:54:05.552Z,24.05
2023-04-11T03:55:05.566Z,24.07
2023-04-11T03:56:05.585Z,24.05
2023-04-11T03:57:05.580Z,24.05
2023-04-11T03:58:05.598Z,24.03
2023-04-11T03:59:05.590Z,24.03
2023-04-11T04:00:05.594Z,24.01
2023-04-11T04:01:05.593Z,24.03
2023-04-11T04:02:05.689Z,24.04
2023-04-11T04:03:05.867Z,24.03
2023-04-11T04:04:05.858Z,24.04
2023-04-11T04:05:05.683Z,24.02
2023-04-11T04:06:05.623Z,24.03
2023-04-11T04:07:05.628Z,24.04
2023-04-11T04:08:05.633Z,24.04
2023-04-11T04:09:05.648Z,24.05
2023-04-11T04:10:05.655Z,24.04
2023-04-11T04:11:05.672Z,24.09
2023-04-11T04:12:05.659Z,24.07
2023-04-11T04:13:05.659Z,24.08
2023-04-11T04:14:05.676Z,24.06
2023-04-11T04:15:05.678Z,24.08
2023-04-11T04:16:05.733Z,24.04
2023-04-11T04:17:05.683Z,24.06
2023-04-11T04:18:05.813Z,24.05
2023-04-11T04:19:05.755Z,24.03
2023-04-11T04:20:05.704Z,24.04
2023-04-11T04:21:05.706Z,24.07
2023-04-11T04:22:05.717Z,24.06
2023-04-11T04:23:05.729Z,24.08
2023-04-11T04:24:05.741Z,24.07
2023-04-11T04:25:05.739Z,24.07
2023-04-11T04:26:05.740Z,24.10
2023-04-11T04:27:05.743Z,24.11
2023-04-11T04:28:05.742Z,24.08
2023-04-11T04:29:05.807Z,24.10
2023-04-11T04:30:05.772Z,24.12
2023-04-11T04:31:05.789Z,24.09
2023-04-11T04:32:05.821Z,24.09
2023-04-11T04:33:05.838Z,24.08
2023-04-11T04:34:05.810Z,24.09
2023-04-11T04:35:05.847Z,24.11
2023-04-11T04:36:05.880Z,24.10
2023-04-11T04:37:05.841Z,24.10
2023-04-11T04:38:05.846Z,24.12
2023-04-11T04:39:05.868Z,24.14
2023-04-11T04:40:05.879Z,24.13
2023-04-11T04:41:05.903Z,24.14
2023-04-11T04:42:05.895Z,24.14
2023-04-11T04:43:05.908Z,24.14
2023-04-11T04:44:05.900Z,24.11
2023-04-11T04:45:05.935Z,24.15
2023-04-11T04:46:05.983Z,24.13
2023-04-11T04:47:05.915Z,24.13
2023-04-11T04:48:05.973Z,24.13
2023-04-11T04:49:05.913Z,24.14
2023-04-11T04:50:05.890Z,24.13
2023-04-11T04:51:05.884Z,24.12
2023-04-11T04:52:05.878Z,24.13
2023-04-11T04:53:05.855Z,24.14
2023-04-11T04:54:05.852Z,24.13
2023-04-11T04:55:05.853Z,24.12
2023-04-11T04:56:05.833Z,24.13
2023-04-11T04:57:05.821Z,24.12
2023-04-11T04:58:05.818Z,24.13
2023-04-11T04:59:05.797Z,24.13
2023-04-11T05:00:05.781Z,24.14
2023-04-11T05:01:05.831Z,24.11
2023-04-11T05:02:05.841Z,24.11
2023-04-11T05:03:06.025Z,24.16
2023-04-11T05:04:05.959Z,24.15
2023-04-11T05:05:05.745Z,24.12
2023-04-11T05:06:05.734Z,24.11
2023-04-11T05:07:05.740Z,24.13
2023-04-11T05:08:05.720Z,24.14
2023-04-11T05:09:05.709Z,24.15
2023-04-11T05:10:05.716Z,24.13
2023-04-11T05:11:05.678Z,24.18
2023-04-11T05:12:07.146Z,24.19
2023-04-11T05:13:05.668Z,24.18
2023-04-11T05:14:05.656Z,24.17
2023-04-11T05:15:05.657Z,24.17
2023-04-11T05:16:05.666Z,24.18
2023-04-11T05:17:05.728Z,24.17
2023-04-11T05:18:05.799Z,24.18
2023-04-11T05:19:05.702Z,24.22
2023-04-11T05:20:05.699Z,24.21
2023-04-11T05:21:05.728Z,24.22
2023-04-11T05:22:05.730Z,24.19
2023-04-11T05:23:05.738Z,24.20
2023-04-11T05:24:05.819Z,24.21
2023-04-11T05:25:05.798Z,24.22
2023-04-11T05:26:05.781Z,24.21
2023-04-11T05:27:05.791Z,24.22
2023-04-11T05:28:05.806Z,24.21
2023-04-11T05:29:05.813Z,24.23
2023-04-11T05:30:05.810Z,24.24
2023-04-11T05:31:05.878Z,24.22
2023-04-11T05:32:05.841Z,24.50
2023-04-11T05:33:05.867Z,24.44
2023-04-11T05:34:05.817Z,24.94
2023-04-11T05:35:05.809Z,25.20
2023-04-11T05:36:06.008Z,25.24
2023-04-11T05:37:05.774Z,25.46
2023-04-11T05:38:05.757Z,25.45
2023-04-11T05:39:05.749Z,25.91
2023-04-11T05:40:05.723Z,26.18
2023-04-11T05:41:05.715Z,26.45
2023-04-11T05:42:06.795Z,26.67
2023-04-11T05:43:05.669Z,26.96
2023-04-11T05:44:05.658Z,27.19
2023-04-11T05:45:05.822Z,27.39
2023-04-11T05:46:05.665Z,27.54
2023-04-11T05:47:05.598Z,27.94
2023-04-11T05:48:05.649Z,28.07
2023-04-11T05:49:05.610Z,28.01
2023-04-11T05:50:05.617Z,27.89
2023-04-11T05:51:06.032Z,27.77
2023-04-11T05:52:05.674Z,27.74
2023-04-11T05:53:05.705Z,27.78
2023-04-11T05:54:05.811Z,27.75
2023-04-11T05:55:05.741Z,27.65
2023-04-11T05:56:05.794Z,27.61
2023-04-11T05:57:05.789Z,27.42
2023-04-11T05:58:05.755Z,27.49
2023-04-11T05:59:06.212Z,27.47
2023-04-11T06:00:05.727Z,27.44
2023-04-11T06:01:05.731Z,27.47
2023-04-11T06:02:05.769Z,27.45
2023-04-11T06:03:05.792Z,27.41
2023-04-11T06:04:06.032Z,27.36
2023-04-11T06:05:05.831Z,27.36
2023-04-11T06:06:05.697Z,27.34
2023-04-11T06:07:05.810Z,27.32
2023-04-11T06:08:05.722Z,27.28
2023-04-11T06:09:05.709Z,27.24
2023-04-11T06:10:05.704Z,27.20
2023-04-11T06:11:05.671Z,27.13
2023-04-11T06:12:05.672Z,27.10
2023-04-11T06:13:05.637Z,27.09
2023-04-11T06:14:05.678Z,27.06
2023-04-11T06:15:05.637Z,27.04
2023-04-11T06:16:05.625Z,26.99
2023-04-11T06:17:05.601Z,26.95
2023-04-11T06:18:05.668Z,26.92
2023-04-11T06:19:05.566Z,26.87
2023-04-11T06:20:06.154Z,26.82
2023-04-11T06:21:05.718Z,26.80
2023-04-11T06:22:05.515Z,26.78
2023-04-11T06:23:05.524Z,26.74
2023-04-11T06:24:05.525Z,26.73
2023-04-11T06:25:05.492Z,26.70
2023-04-11T06:26:05.797Z,26.68
2023-04-11T06:27:05.496Z,26.65
2023-04-11T06:28:05.461Z,26.63
2023-04-11T06:29:05.466Z,26.59
2023-04-11T06:30:05.464Z,26.57
2023-04-11T06:31:05.500Z,26.52
2023-04-11T06:32:05.425Z,26.51
2023-04-11T06:33:05.414Z,26.46
2023-04-11T06:34:05.400Z,26.49
2023-04-11T06:35:05.411Z,26.43
2023-04-11T06:36:06.173Z,26.43
2023-04-11T06:37:05.337Z,26.39
2023-04-11T06:38:05.336Z,26.37
2023-04-11T06:39:05.309Z,26.35
2023-04-11T06:40:05.322Z,26.34
2023-04-11T06:41:05.379Z,26.32
2023-04-11T06:42:05.285Z,26.49
2023-04-11T06:43:05.281Z,26.50
2023-04-11T06:44:05.413Z,26.71
2023-04-11T06:45:06.124Z,26.93
2023-04-11T06:46:05.337Z,26.89
2023-04-11T06:47:05.264Z,27.20
2023-04-11T06:48:05.256Z,27.50
2023-04-11T06:49:05.256Z,27.97
2023-04-11T06:50:05.243Z,27.86
2023-04-11T06:51:05.228Z,28.49
2023-04-11T06:52:05.236Z,28.27
2023-04-11T06:53:05.235Z,28.31
2023-04-11T06:54:05.237Z,28.54
2023-04-11T06:55:05.229Z,28.80
2023-04-11T06:56:05.166Z,29.02
2023-04-11T06:57:05.206Z,29.17
2023-04-11T06:58:05.211Z,29.54
2023-04-11T06:59:05.264Z,29.74
2023-04-11T07:00:05.320Z,29.63
2023-04-11T07:01:05.345Z,29.80
2023-04-11T07:02:05.531Z,29.67
2023-04-11T07:03:05.620Z,30.30
2023-04-11T07:04:05.561Z,30.54
2023-04-11T07:05:05.550Z,30.60
2023-04-11T07:06:05.586Z,30.53
2023-04-11T07:07:05.627Z,30.73
2023-04-11T07:08:05.684Z,30.96
2023-04-11T07:09:05.712Z,30.70
2023-04-11T07:10:05.764Z,30.69
2023-04-11T07:11:05.779Z,30.89
2023-04-11T07:12:05.797Z,31.03
2023-04-11T07:13:05.821Z,31.10
2023-04-11T07:14:05.840Z,31.08
2023-04-11T07:15:05.850Z,31.35
2023-04-11T07:16:05.845Z,31.84
2023-04-11T07:17:05.795Z,31.38
2023-04-11T07:18:05.813Z,31.76
2023-04-11T07:19:05.754Z,31.62
2023-04-11T07:20:05.740Z,31.67
2023-04-11T07:21:05.719Z,31.93
2023-04-11T07:22:05.695Z,31.71
2023-04-11T07:23:05.703Z,31.68
2023-04-11T07:24:05.651Z,31.74
2023-04-11T07:25:05.625Z,31.86
2023-04-11T07:26:05.594Z,31.86
2023-04-11T07:27:05.574Z,32.55
2023-04-11T07:28:05.569Z,32.36
2023-04-11T07:29:07.011Z,32.38
2023-04-11T07:30:05.525Z,32.78
2023-04-11T07:31:05.514Z,32.85
2023-04-11T07:32:05.502Z,32.64
2023-04-11T07:33:05.484Z,32.64
2023-04-11T07:34:05.443Z,32.77
2023-04-11T07:35:05.518Z,32.72
2023-04-11T07:36:05.428Z,32.97
2023-04-11T07:37:05.373Z,32.95
2023-04-11T07:38:05.352Z,32.82
2023-04-11T07:39:05.333Z,32.67
2023-04-11T07:40:05.321Z,31.64
2023-04-11T07:41:05.302Z,32.14
2023-04-11T07:42:05.280Z,32.27
2023-04-11T07:43:05.352Z,32.58
2023-04-11T07:44:05.219Z,32.51
2023-04-11T07:45:05.285Z,32.43
2023-04-11T07:46:05.221Z,32.25
2023-04-11T07:47:05.198Z,32.16
2023-04-11T07:48:05.178Z,32.13
2023-04-11T07:49:05.416Z,32.10
2023-04-11T07:50:05.124Z,32.13
2023-04-11T07:51:05.091Z,32.49
2023-04-11T07:52:05.076Z,32.69
2023-04-11T07:53:05.025Z,32.31
2023-04-11T07:54:05.000Z,31.96
2023-04-11T07:55:04.964Z,30.08
2023-04-11T07:56:05.008Z,29.02
2023-04-11T07:57:04.943Z,28.68
2023-04-11T07:58:04.908Z,27.55
2023-04-11T07:59:04.874Z,27.42
2023-04-11T08:00:04.848Z,27.37
2023-04-11T08:01:04.839Z,27.18
2023-04-11T08:02:04.868Z,26.76
2023-04-11T08:03:05.008Z,26.34
2023-04-11T08:04:05.367Z,26.21
2023-04-11T08:05:05.087Z,25.84
2023-04-11T08:06:04.796Z,25.82
2023-04-11T08:07:04.848Z,26.02
2023-04-11T08:08:04.854Z,25.90
2023-04-11T08:09:04.954Z,25.20
2023-04-11T08:10:04.933Z,25.54
2023-04-11T08:11:04.999Z,25.46
2023-04-11T08:12:05.116Z,25.46
2023-04-11T08:13:05.041Z,25.30
2023-04-11T08:14:05.038Z,24.88
2023-04-11T08:15:05.016Z,25.23
2023-04-11T08:16:05.015Z,25.27
2023-04-11T08:17:10.044Z,24.51
2023-04-11T08:18:05.992Z,23.67
2023-04-11T08:19:04.937Z,24.29
2023-04-11T08:20:04.917Z,23.90
2023-04-11T08:21:04.965Z,23.97
2023-04-11T08:22:04.963Z,23.75
2023-04-11T08:23:06.026Z,23.33
2023-04-11T08:24:04.862Z,23.60
2023-04-11T08:25:04.860Z,23.58
2023-04-11T08:26:04.863Z,23.65
2023-04-11T08:27:04.865Z,23.44
2023-04-11T08:28:04.816Z,23.36
2023-04-11T08:29:04.952Z,23.42
2023-04-11T08:30:04.807Z,23.52
2023-04-11T08:31:04.841Z,23.98
2023-04-11T08:32:04.775Z,24.95
2023-04-11T08:33:04.763Z,24.92
2023-04-11T08:34:06.916Z,25.04
2023-04-11T08:35:04.722Z,25.04
2023-04-11T08:36:04.754Z,25.06
2023-04-11T08:37:04.847Z,25.02
2023-04-11T08:38:04.717Z,24.98
2023-04-11T08:39:04.674Z,24.98
2023-04-11T08:40:04.729Z,24.99
2023-04-11T08:41:04.723Z,25.04
2023-04-11T08:42:04.673Z,25.02
2023-04-11T08:43:04.622Z,25.04
2023-04-11T08:44:04.626Z,25.08
2023-04-11T08:45:04.618Z,25.08
2023-04-11T08:46:04.623Z,25.12
2023-04-11T08:47:04.576Z,25.12
2023-04-11T08:48:04.582Z,25.15
2023-04-11T08:49:04.600Z,25.20
2023-04-11T08:50:04.570Z,25.39
2023-04-11T08:51:04.591Z,25.37
2023-04-11T08:52:04.611Z,25.60
2023-04-11T08:53:04.673Z,25.73
2023-04-11T08:54:04.638Z,25.96
2023-04-11T08:55:04.680Z,26.02
2023-04-11T08:56:04.613Z,26.20
2023-04-11T08:57:04.594Z,26.27
2023-04-11T08:58:04.582Z,26.57
2023-04-11T08:59:04.565Z,26.70
2023-04-11T09:00:04.543Z,26.80
2023-04-11T09:01:04.565Z,26.91
2023-04-11T09:02:04.612Z,26.95
2023-04-11T09:03:04.553Z,27.18
2023-04-11T09:04:04.523Z,27.24
2023-04-11T09:05:04.576Z,27.38
2023-04-11T09:06:04.584Z,27.73
2023-04-11T09:07:04.600Z,27.68
2023-04-11T09:08:04.583Z,27.75
2023-04-11T09:09:04.555Z,27.85
2023-04-11T09:10:04.531Z,27.93
2023-04-11T09:11:04.519Z,28.02
2023-04-11T09:12:04.497Z,28.15
2023-04-11T09:13:04.497Z,28.27
2023-04-11T09:14:04.597Z,28.39
2023-04-11T09:15:04.560Z,28.49
2023-04-11T09:16:04.457Z,28.58
2023-04-11T09:17:04.418Z,28.64
2023-04-11T09:18:04.406Z,28.79
2023-04-11T09:19:04.421Z,28.86
2023-04-11T09:20:04.414Z,29.07
2023-04-11T09:21:04.321Z,29.32
2023-04-11T09:22:04.310Z,29.38
2023-04-11T09:23:04.341Z,29.57
2023-04-11T09:24:04.269Z,29.55
2023-04-11T09:25:04.261Z,29.50
2023-04-11T09:26:04.261Z,29.41
2023-04-11T09:27:04.277Z,29.40
2023-04-11T09:28:04.397Z,29.52
2023-04-11T09:29:04.318Z,29.50
2023-04-11T09:30:04.199Z,29.46
2023-04-11T09:31:04.216Z,29.42
2023-04-11T09:32:04.157Z,29.35
2023-04-11T09:33:04.182Z,29.31
2023-04-11T09:34:04.132Z,29.20
2023-04-11T09:35:04.114Z,29.07
2023-04-11T09:36:04.195Z,29.03
2023-04-11T09:37:04.068Z,28.97
2023-04-11T09:38:04.076Z,28.97
2023-04-11T09:39:04.056Z,28.89
2023-04-11T09:40:05.593Z,28.97
2023-04-11T09:41:04.058Z,29.01
2023-04-11T09:42:03.972Z,29.09
2023-04-11T09:43:04.022Z,29.08
2023-04-11T09:44:04.063Z,29.07
2023-04-11T09:45:03.906Z,29.07
2023-04-11T09:46:03.897Z,29.37
2023-04-11T09:47:03.955Z,29.28
2023-04-11T09:48:03.930Z,29.20
2023-04-11T09:49:04.021Z,29.19
2023-04-11T09:50:03.789Z,29.20
2023-04-11T09:51:03.812Z,29.25
2023-04-11T09:52:03.752Z,29.26
2023-04-11T09:53:03.710Z,29.21
2023-04-11T09:54:03.992Z,29.21
2023-04-11T09:55:03.650Z,29.20
2023-04-11T09:56:03.655Z,29.19
2023-04-11T09:57:03.620Z,29.16
2023-04-11T09:58:03.584Z,29.13
2023-04-11T09:59:03.567Z,29.09
2023-04-11T10:00:03.536Z,29.07
2023-04-11T10:01:03.507Z,29.04
2023-04-11T10:02:03.608Z,29.02
2023-04-11T10:03:03.606Z,28.97
2023-04-11T10:04:03.411Z,28.96
2023-04-11T10:05:03.481Z,28.93
2023-04-11T10:06:03.366Z,28.88
2023-04-11T10:07:03.326Z,28.84
2023-04-11T10:08:03.317Z,28.82
2023-04-11T10:09:03.320Z,28.77
2023-04-11T10:10:03.253Z,28.74
2023-04-11T10:11:03.230Z,28.72
2023-04-11T10:12:03.242Z,28.70
2023-04-11T10:13:03.180Z,28.65
2023-04-11T10:14:03.179Z,28.63
2023-04-11T10:15:03.282Z,28.63
2023-04-11T10:16:03.174Z,28.60
2023-04-11T10:17:03.128Z,28.60
2023-04-11T10:18:03.204Z,28.57
2023-04-11T10:19:03.079Z,28.54
2023-04-11T10:20:03.067Z,28.53
2023-04-11T10:21:03.053Z,28.53
2023-04-11T10:22:03.113Z,28.84
2023-04-11T10:23:03.067Z,28.67
2023-04-11T10:24:03.086Z,28.63
2023-04-11T10:25:03.109Z,28.65
2023-04-11T10:26:03.806Z,28.66
2023-04-11T10:27:03.146Z,28.67
2023-04-11T10:28:03.155Z,28.64
2023-04-11T10:29:03.194Z,28.65
2023-04-11T10:30:03.208Z,28.60
2023-04-11T10:31:03.233Z,28.58
2023-04-11T10:32:03.293Z,28.57
2023-04-11T10:33:03.332Z,28.51
2023-04-11T10:34:03.274Z,28.48
2023-04-11T10:35:03.296Z,28.43
2023-04-11T10:36:03.392Z,28.45
2023-04-11T10:37:03.310Z,28.41
2023-04-11T10:38:03.359Z,28.39
2023-04-11T10:39:03.385Z,28.33
2023-04-11T10:40:03.383Z,28.32
2023-04-11T10:41:03.396Z,28.32
2023-04-11T10:42:03.428Z,28.22
2023-04-11T10:43:03.458Z,28.24
2023-04-11T10:44:03.459Z,28.21
2023-04-11T10:45:03.489Z,28.14
2023-04-11T10:46:03.494Z,28.08
2023-04-11T10:47:03.606Z,28.06
2023-04-11T10:48:03.693Z,28.03
2023-04-11T10:49:03.589Z,28.02
2023-04-11T10:50:03.600Z,27.99
2023-04-11T10:51:03.641Z,28.04
2023-04-11T10:52:03.639Z,28.01
2023-04-11T10:53:03.675Z,28.01
2023-04-11T10:54:03.950Z,27.98
2023-04-11T10:55:03.704Z,28.00
2023-04-11T10:56:03.755Z,27.97
2023-04-11T10:57:03.739Z,27.98
2023-04-11T10:58:03.803Z,27.96
2023-04-11T10:59:03.784Z,27.94
2023-04-11T11:01:03.887Z,27.89
2023-04-11T11:02:03.948Z,27.86
2023-04-11T11:03:04.202Z,27.86
2023-04-11T11:04:04.345Z,27.85
2023-04-11T11:05:04.072Z,27.82
2023-04-11T11:06:03.871Z,27.81
2023-04-11T11:07:03.860Z,27.76
2023-04-11T11:08:03.839Z,27.74
2023-04-11T11:09:03.803Z,27.76
2023-04-11T11:10:03.762Z,27.74
2023-04-11T11:11:03.755Z,27.73
2023-04-11T11:12:03.727Z,27.72
2023-04-11T11:13:03.727Z,27.72
2023-04-11T11:14:03.694Z,27.68
2023-04-11T11:15:03.705Z,27.70
2023-04-11T11:16:03.731Z,27.70
2023-04-11T11:17:03.858Z,27.68
2023-04-11T11:18:03.635Z,27.70
2023-04-11T11:19:03.622Z,27.69
2023-04-11T11:20:03.573Z,27.69
2023-04-11T11:21:03.835Z,27.71
2023-04-11T11:22:03.775Z,27.68
2023-04-11T11:23:03.525Z,27.66
2023-04-11T11:24:03.638Z,27.65
2023-04-11T11:25:03.483Z,27.64
2023-04-11T11:26:03.450Z,27.67
2023-04-11T11:27:03.492Z,27.63
2023-04-11T11:28:03.472Z,27.66
2023-04-11T11:29:03.409Z,27.68
2023-04-11T11:30:03.505Z,27.65
2023-04-11T11:31:03.528Z,27.65
2023-04-11T11:32:03.682Z,27.65
2023-04-11T11:33:03.523Z,27.62
2023-04-11T11:34:21.324Z,27.65
2023-04-11T11:35:04.466Z,27.63
2023-04-11T11:36:03.429Z,27.65
2023-04-11T11:37:03.446Z,27.68
2023-04-11T11:38:03.378Z,27.63
2023-04-11T11:39:03.366Z,27.66
2023-04-11T11:40:03.374Z,27.65
2023-04-11T11:41:03.319Z,27.67
2023-04-11T11:42:03.337Z,27.64
2023-04-11T11:43:03.294Z,27.61
2023-04-11T11:44:03.252Z,27.62
2023-04-11T11:45:03.289Z,27.62
2023-04-11T11:46:04.747Z,27.64
2023-04-11T11:47:03.188Z,27.65
2023-04-11T11:48:03.216Z,27.64
2023-04-11T11:49:03.169Z,27.61
2023-04-11T11:50:03.130Z,27.64
2023-04-11T11:51:03.154Z,27.63
2023-04-11T11:52:03.167Z,27.60
2023-04-11T11:53:03.248Z,27.61
2023-04-11T11:54:03.222Z,27.59
2023-04-11T11:55:03.262Z,27.58
2023-04-11T11:56:03.308Z,27.57
2023-04-11T11:57:03.307Z,27.55
2023-04-11T11:58:03.337Z,27.55
2023-04-11T11:59:03.310Z,27.56
2023-04-11T12:00:03.284Z,27.50
2023-04-11T12:01:03.267Z,27.50
2023-04-11T12:02:03.320Z,27.47
2023-04-11T12:03:03.446Z,27.47
2023-04-11T12:04:03.378Z,27.41
2023-04-11T12:05:03.247Z,27.42
2023-04-11T12:06:03.136Z,27.42
2023-04-11T12:07:03.136Z,27.41
2023-04-11T12:08:03.090Z,27.40
2023-04-11T12:09:03.092Z,27.40
2023-04-11T12:10:03.047Z,27.40
2023-04-11T12:11:03.100Z,27.40
2023-04-11T12:12:03.084Z,27.43
2023-04-11T12:13:03.080Z,27.40
2023-04-11T12:14:03.101Z,27.42
2023-04-11T12:15:03.146Z,27.37
2023-04-11T12:16:03.213Z,27.38
2023-04-11T12:17:03.191Z,27.38
2023-04-11T12:18:03.266Z,27.40
2023-04-11T12:19:03.260Z,27.39
2023-04-11T12:20:03.314Z,27.40
2023-04-11T12:21:03.298Z,27.40
2023-04-11T12:22:03.331Z,27.41
2023-04-11T12:23:03.367Z,27.40
2023-04-11T12:24:03.401Z,27.41
2023-04-11T12:25:03.461Z,27.40
2023-04-11T12:26:03.500Z,27.38
2023-04-11T12:27:07.322Z,27.39
2023-04-11T12:28:03.526Z,27.37
2023-04-11T12:29:03.484Z,27.35
2023-04-11T12:30:03.478Z,27.35
2023-04-11T12:31:03.473Z,27.36
2023-04-11T12:32:03.414Z,27.32
2023-04-11T12:33:03.425Z,27.32
2023-04-11T12:34:03.410Z,27.29
2023-04-11T12:35:03.491Z,27.29
2023-04-11T12:36:03.343Z,27.29
2023-04-11T12:37:03.322Z,27.28
2023-04-11T12:38:03.296Z,27.29
2023-04-11T12:39:03.291Z,27.27
2023-04-11T12:40:03.296Z,27.26
2023-04-11T12:41:26.262Z,27.27
2023-04-11T12:42:04.248Z,27.27
2023-04-11T12:43:03.230Z,27.26
2023-04-11T12:44:03.232Z,27.24
2023-04-11T12:45:03.199Z,27.25
2023-04-11T12:46:03.189Z,27.26
2023-04-11T12:47:03.252Z,27.23
2023-04-11T12:48:03.245Z,27.21
2023-04-11T12:49:03.135Z,27.23
2023-04-11T12:50:03.134Z,27.24
2023-04-11T12:51:03.119Z,27.23
2023-04-11T12:52:03.077Z,27.22
2023-04-11T12:53:03.059Z,27.22